sensor_id;sensor_type;location;lat;lon;timestamp;P1;durP1;ratioP1;P2;durP2;ratioP2
30539;SDS011;17321;46.312;4.776;2023-09-30T00:00:46;20.88;;;9.20;;
30539;SDS011;17321;46.312;4.776;2023-09-30T00:03:12;24.75;;;10.52;;
30539;SDS011;17321;46.312;4.776;2023-09-30T00:05:38;18.10;;;9.25;;
30539;SDS011;17321;46.312;4.776;2023-09-30T00:08:04;23.50;;;10.02;;
30539;SDS011;17321;46.312;4.776;2023-09-30T00:10:31;18.73;;;8.38;;
30539;SDS011;17321;46.312;4.776;2023-09-30T00:12:58;23.48;;;9.02;;
30539;SDS011;17321;46.312;4.776;2023-09-30T00:15:24;18.50;;;9.40;;
30539;SDS011;17321;46.312;4.776;2023-09-30T00:17:50;22.38;;;9.77;;
30539;SDS011;17321;46.312;4.776;2023-09-30T00:20:16;21.38;;;8.73;;
30539;SDS011;17321;46.312;4.776;2023-09-30T00:22:43;23.35;;;10.35;;
30539;SDS011;17321;46.312;4.776;2023-09-30T00:25:09;20.13;;;9.98;;
30539;SDS011;17321;46.312;4.776;2023-09-30T00:27:35;20.20;;;9.52;;
30539;SDS011;17321;46.312;4.776;2023-09-30T00:30:02;18.95;;;9.18;;
30539;SDS011;17321;46.312;4.776;2023-09-30T00:32:28;21.75;;;9.13;;
30539;SDS011;17321;46.312;4.776;2023-09-30T00:34:54;21.75;;;9.73;;
30539;SDS011;17321;46.312;4.776;2023-09-30T00:37:20;19.17;;;9.52;;
30539;SDS011;17321;46.312;4.776;2023-09-30T00:39:47;22.73;;;9.65;;
30539;SDS011;17321;46.312;4.776;2023-09-30T00:42:13;22.50;;;10.23;;
30539;SDS011;17321;46.312;4.776;2023-09-30T00:44:39;22.00;;;9.43;;
30539;SDS011;17321;46.312;4.776;2023-09-30T00:47:05;18.27;;;8.82;;
30539;SDS011;17321;46.312;4.776;2023-09-30T00:49:33;23.40;;;9.43;;
30539;SDS011;17321;46.312;4.776;2023-09-30T00:52:00;18.27;;;8.82;;
30539;SDS011;17321;46.312;4.776;2023-09-30T00:54:27;20.27;;;9.07;;
30539;SDS011;17321;46.312;4.776;2023-09-30T00:56:55;22.08;;;10.15;;
30539;SDS011;17321;46.312;4.776;2023-09-30T00:59:21;26.65;;;10.75;;
30539;SDS011;17321;46.312;4.776;2023-09-30T01:01:50;23.33;;;10.00;;
30539;SDS011;17321;46.312;4.776;2023-09-30T01:04:16;20.17;;;8.60;;
30539;SDS011;17321;46.312;4.776;2023-09-30T01:06:43;22.05;;;9.30;;
30539;SDS011;17321;46.312;4.776;2023-09-30T01:09:09;19.80;;;9.48;;
30539;SDS011;17321;46.312;4.776;2023-09-30T01:11:37;25.65;;;10.73;;
30539;SDS011;17321;46.312;4.776;2023-09-30T01:14:03;22.23;;;8.82;;
30539;SDS011;17321;46.312;4.776;2023-09-30T01:16:29;23.40;;;9.57;;
30539;SDS011;17321;46.312;4.776;2023-09-30T01:18:55;20.92;;;9.70;;
30539;SDS011;17321;46.312;4.776;2023-09-30T01:21:22;19.77;;;9.02;;
30539;SDS011;17321;46.312;4.776;2023-09-30T01:23:49;22.80;;;9.75;;
30539;SDS011;17321;46.312;4.776;2023-09-30T01:26:15;27.70;;;10.27;;
30539;SDS011;17321;46.312;4.776;2023-09-30T01:28:42;22.10;;;10.00;;
30539;SDS011;17321;46.312;4.776;2023-09-30T01:31:08;24.13;;;10.20;;
30539;SDS011;17321;46.312;4.776;2023-09-30T01:33:35;19.63;;;9.45;;
30539;SDS011;17321;46.312;4.776;2023-09-30T01:36:01;19.98;;;9.32;;
30539;SDS011;17321;46.312;4.776;2023-09-30T01:38:27;23.48;;;9.05;;
30539;SDS011;17321;46.312;4.776;2023-09-30T01:40:53;26.63;;;11.00;;
30539;SDS011;17321;46.312;4.776;2023-09-30T01:43:19;23.50;;;10.52;;
30539;SDS011;17321;46.312;4.776;2023-09-30T01:45:45;26.48;;;10.07;;
30539;SDS011;17321;46.312;4.776;2023-09-30T01:48:11;22.95;;;10.57;;
30539;SDS011;17321;46.312;4.776;2023-09-30T01:50:38;24.73;;;9.55;;
30539;SDS011;17321;46.312;4.776;2023-09-30T01:53:04;19.98;;;8.82;;
30539;SDS011;17321;46.312;4.776;2023-09-30T01:55:34;23.70;;;9.80;;
30539;SDS011;17321;46.312;4.776;2023-09-30T01:58:01;27.38;;;9.73;;
30539;SDS011;17321;46.312;4.776;2023-09-30T02:00:27;22.20;;;10.07;;
30539;SDS011;17321;46.312;4.776;2023-09-30T02:02:54;20.17;;;9.32;;
30539;SDS011;17321;46.312;4.776;2023-09-30T02:05:21;21.67;;;9.63;;
30539;SDS011;17321;46.312;4.776;2023-09-30T02:07:48;23.45;;;10.50;;
30539;SDS011;17321;46.312;4.776;2023-09-30T02:10:14;26.10;;;10.05;;
30539;SDS011;17321;46.312;4.776;2023-09-30T02:12:40;20.70;;;9.85;;
30539;SDS011;17321;46.312;4.776;2023-09-30T02:15:06;28.27;;;9.80;;
30539;SDS011;17321;46.312;4.776;2023-09-30T02:17:32;20.70;;;9.90;;
30539;SDS011;17321;46.312;4.776;2023-09-30T02:19:59;21.92;;;9.52;;
30539;SDS011;17321;46.312;4.776;2023-09-30T02:22:26;19.60;;;9.38;;
30539;SDS011;17321;46.312;4.776;2023-09-30T02:24:53;18.77;;;8.40;;
30539;SDS011;17321;46.312;4.776;2023-09-30T02:27:20;19.27;;;9.80;;
30539;SDS011;17321;46.312;4.776;2023-09-30T02:29:47;20.85;;;8.75;;
30539;SDS011;17321;46.312;4.776;2023-09-30T02:32:13;21.10;;;8.88;;
30539;SDS011;17321;46.312;4.776;2023-09-30T02:34:39;20.67;;;9.43;;
30539;SDS011;17321;46.312;4.776;2023-09-30T02:37:05;19.73;;;8.48;;
30539;SDS011;17321;46.312;4.776;2023-09-30T02:39:32;18.33;;;8.98;;
30539;SDS011;17321;46.312;4.776;2023-09-30T02:41:58;20.20;;;8.68;;
30539;SDS011;17321;46.312;4.776;2023-09-30T02:44:24;20.65;;;9.85;;
30539;SDS011;17321;46.312;4.776;2023-09-30T02:46:50;24.00;;;9.65;;
30539;SDS011;17321;46.312;4.776;2023-09-30T02:49:16;20.88;;;9.45;;
30539;SDS011;17321;46.312;4.776;2023-09-30T02:51:42;19.50;;;9.07;;
30539;SDS011;17321;46.312;4.776;2023-09-30T02:54:09;19.42;;;8.43;;
30539;SDS011;17321;46.312;4.776;2023-09-30T02:56:40;24.27;;;9.48;;
30539;SDS011;17321;46.312;4.776;2023-09-30T02:59:06;18.35;;;8.73;;
30539;SDS011;17321;46.312;4.776;2023-09-30T03:01:32;19.90;;;9.00;;
30539;SDS011;17321;46.312;4.776;2023-09-30T03:03:59;22.02;;;8.95;;
30539;SDS011;17321;46.312;4.776;2023-09-30T03:06:25;20.52;;;9.52;;
30539;SDS011;17321;46.312;4.776;2023-09-30T03:08:51;25.52;;;9.82;;
30539;SDS011;17321;46.312;4.776;2023-09-30T03:11:18;23.55;;;9.10;;
30539;SDS011;17321;46.312;4.776;2023-09-30T03:13:45;26.00;;;9.65;;
30539;SDS011;17321;46.312;4.776;2023-09-30T03:16:11;20.85;;;9.57;;
30539;SDS011;17321;46.312;4.776;2023-09-30T03:18:37;20.75;;;9.68;;
30539;SDS011;17321;46.312;4.776;2023-09-30T03:21:12;29.50;;;10.57;;
30539;SDS011;17321;46.312;4.776;2023-09-30T03:23:38;36.90;;;10.15;;
30539;SDS011;17321;46.312;4.776;2023-09-30T03:26:05;31.80;;;9.82;;
30539;SDS011;17321;46.312;4.776;2023-09-30T03:28:35;26.58;;;9.27;;
30539;SDS011;17321;46.312;4.776;2023-09-30T03:31:03;25.40;;;10.05;;
30539;SDS011;17321;46.312;4.776;2023-09-30T03:33:30;26.70;;;9.90;;
30539;SDS011;17321;46.312;4.776;2023-09-30T03:35:56;27.00;;;10.73;;
30539;SDS011;17321;46.312;4.776;2023-09-30T03:38:23;27.05;;;9.98;;
30539;SDS011;17321;46.312;4.776;2023-09-30T03:40:50;22.00;;;9.93;;
30539;SDS011;17321;46.312;4.776;2023-09-30T03:43:18;25.13;;;10.13;;
30539;SDS011;17321;46.312;4.776;2023-09-30T03:45:46;19.52;;;9.43;;
30539;SDS011;17321;46.312;4.776;2023-09-30T03:48:12;26.35;;;9.82;;
30539;SDS011;17321;46.312;4.776;2023-09-30T03:50:38;20.02;;;9.52;;
30539;SDS011;17321;46.312;4.776;2023-09-30T03:53:04;19.25;;;9.27;;
30539;SDS011;17321;46.312;4.776;2023-09-30T03:55:34;21.67;;;9.32;;
30539;SDS011;17321;46.312;4.776;2023-09-30T03:58:02;19.48;;;8.60;;
30539;SDS011;17321;46.312;4.776;2023-09-30T04:00:28;22.08;;;9.40;;
30539;SDS011;17321;46.312;4.776;2023-09-30T04:02:55;18.85;;;9.02;;
30539;SDS011;17321;46.312;4.776;2023-09-30T04:05:25;18.20;;;9.35;;
30539;SDS011;17321;46.312;4.776;2023-09-30T04:07:54;24.92;;;9.30;;
30539;SDS011;17321;46.312;4.776;2023-09-30T04:10:21;21.55;;;9.18;;
30539;SDS011;17321;46.312;4.776;2023-09-30T04:12:50;19.55;;;8.88;;
30539;SDS011;17321;46.312;4.776;2023-09-30T04:15:17;21.60;;;8.63;;
30539;SDS011;17321;46.312;4.776;2023-09-30T04:17:43;22.73;;;10.00;;
30539;SDS011;17321;46.312;4.776;2023-09-30T04:20:10;23.92;;;9.73;;
30539;SDS011;17321;46.312;4.776;2023-09-30T04:22:41;28.15;;;9.73;;
30539;SDS011;17321;46.312;4.776;2023-09-30T04:25:11;23.58;;;10.20;;
30539;SDS011;17321;46.312;4.776;2023-09-30T04:27:37;22.20;;;9.00;;
30539;SDS011;17321;46.312;4.776;2023-09-30T04:30:03;22.13;;;9.27;;
30539;SDS011;17321;46.312;4.776;2023-09-30T04:32:34;19.05;;;9.90;;
30539;SDS011;17321;46.312;4.776;2023-09-30T04:35:00;20.83;;;9.02;;
30539;SDS011;17321;46.312;4.776;2023-09-30T04:37:26;25.35;;;9.57;;
30539;SDS011;17321;46.312;4.776;2023-09-30T04:39:52;21.63;;;9.48;;
30539;SDS011;17321;46.312;4.776;2023-09-30T04:42:18;22.45;;;9.75;;
30539;SDS011;17321;46.312;4.776;2023-09-30T04:44:44;21.40;;;8.90;;
30539;SDS011;17321;46.312;4.776;2023-09-30T04:47:11;25.35;;;10.10;;
30539;SDS011;17321;46.312;4.776;2023-09-30T04:49:37;30.20;;;10.73;;
30539;SDS011;17321;46.312;4.776;2023-09-30T04:52:03;25.08;;;9.25;;
30539;SDS011;17321;46.312;4.776;2023-09-30T04:54:32;27.58;;;10.55;;
30539;SDS011;17321;46.312;4.776;2023-09-30T04:57:00;20.95;;;8.77;;
30539;SDS011;17321;46.312;4.776;2023-09-30T04:59:27;22.95;;;9.10;;
30539;SDS011;17321;46.312;4.776;2023-09-30T05:01:54;21.15;;;8.93;;
30539;SDS011;17321;46.312;4.776;2023-09-30T05:04:21;17.52;;;8.45;;
30539;SDS011;17321;46.312;4.776;2023-09-30T05:06:51;21.00;;;8.63;;
30539;SDS011;17321;46.312;4.776;2023-09-30T05:09:17;22.33;;;9.20;;
30539;SDS011;17321;46.312;4.776;2023-09-30T05:11:43;19.60;;;8.90;;
30539;SDS011;17321;46.312;4.776;2023-09-30T05:14:09;22.80;;;9.93;;
30539;SDS011;17321;46.312;4.776;2023-09-30T05:16:35;26.30;;;9.63;;
30539;SDS011;17321;46.312;4.776;2023-09-30T05:19:02;26.77;;;10.02;;
30539;SDS011;17321;46.312;4.776;2023-09-30T05:21:29;25.45;;;9.65;;
30539;SDS011;17321;46.312;4.776;2023-09-30T05:23:55;26.15;;;9.60;;
30539;SDS011;17321;46.312;4.776;2023-09-30T05:26:21;19.90;;;9.20;;
30539;SDS011;17321;46.312;4.776;2023-09-30T05:28:48;21.48;;;10.07;;
30539;SDS011;17321;46.312;4.776;2023-09-30T05:31:14;22.23;;;9.63;;
30539;SDS011;17321;46.312;4.776;2023-09-30T05:33:40;18.70;;;8.90;;
30539;SDS011;17321;46.312;4.776;2023-09-30T05:36:06;25.05;;;10.15;;
30539;SDS011;17321;46.312;4.776;2023-09-30T05:38:32;26.83;;;9.57;;
30539;SDS011;17321;46.312;4.776;2023-09-30T05:40:59;20.25;;;8.82;;
30539;SDS011;17321;46.312;4.776;2023-09-30T05:43:26;22.13;;;9.70;;
30539;SDS011;17321;46.312;4.776;2023-09-30T05:45:52;23.23;;;9.82;;
30539;SDS011;17321;46.312;4.776;2023-09-30T05:48:20;29.17;;;10.20;;
30539;SDS011;17321;46.312;4.776;2023-09-30T05:50:46;22.52;;;9.05;;
30539;SDS011;17321;46.312;4.776;2023-09-30T05:53:12;16.70;;;8.75;;
30539;SDS011;17321;46.312;4.776;2023-09-30T05:55:39;28.05;;;9.57;;
30539;SDS011;17321;46.312;4.776;2023-09-30T06:00:34;21.67;;;9.40;;
30539;SDS011;17321;46.312;4.776;2023-09-30T06:03:00;19.40;;;8.88;;
30539;SDS011;17321;46.312;4.776;2023-09-30T06:05:26;22.00;;;9.07;;
30539;SDS011;17321;46.312;4.776;2023-09-30T06:07:57;21.67;;;9.65;;
30539;SDS011;17321;46.312;4.776;2023-09-30T06:10:23;23.17;;;8.98;;
30539;SDS011;17321;46.312;4.776;2023-09-30T06:12:51;21.67;;;9.25;;
30539;SDS011;17321;46.312;4.776;2023-09-30T06:15:21;24.23;;;9.32;;
30539;SDS011;17321;46.312;4.776;2023-09-30T06:17:51;25.88;;;9.75;;
30539;SDS011;17321;46.312;4.776;2023-09-30T06:20:17;21.42;;;8.10;;
30539;SDS011;17321;46.312;4.776;2023-09-30T06:22:44;25.77;;;10.40;;
30539;SDS011;17321;46.312;4.776;2023-09-30T06:25:16;22.50;;;8.82;;
30539;SDS011;17321;46.312;4.776;2023-09-30T06:27:46;26.98;;;9.80;;
30539;SDS011;17321;46.312;4.776;2023-09-30T06:30:13;25.88;;;9.35;;
30539;SDS011;17321;46.312;4.776;2023-09-30T06:32:41;22.05;;;9.68;;
30539;SDS011;17321;46.312;4.776;2023-09-30T06:35:07;22.00;;;9.52;;
30539;SDS011;17321;46.312;4.776;2023-09-30T06:37:37;20.53;;;8.50;;
30539;SDS011;17321;46.312;4.776;2023-09-30T06:40:07;23.08;;;9.90;;
30539;SDS011;17321;46.312;4.776;2023-09-30T06:42:34;24.15;;;9.73;;
30539;SDS011;17321;46.312;4.776;2023-09-30T06:45:01;26.73;;;8.98;;
30539;SDS011;17321;46.312;4.776;2023-09-30T06:47:33;20.55;;;9.35;;
30539;SDS011;17321;46.312;4.776;2023-09-30T06:50:04;22.95;;;10.38;;
30539;SDS011;17321;46.312;4.776;2023-09-30T06:52:33;25.30;;;9.50;;
30539;SDS011;17321;46.312;4.776;2023-09-30T06:55:00;19.33;;;8.43;;
30539;SDS011;17321;46.312;4.776;2023-09-30T06:57:27;21.15;;;9.63;;
30539;SDS011;17321;46.312;4.776;2023-09-30T06:59:53;23.92;;;8.82;;
30539;SDS011;17321;46.312;4.776;2023-09-30T07:02:20;23.30;;;9.85;;
30539;SDS011;17321;46.312;4.776;2023-09-30T07:04:46;24.15;;;9.95;;
30539;SDS011;17321;46.312;4.776;2023-09-30T07:07:13;21.33;;;9.50;;
30539;SDS011;17321;46.312;4.776;2023-09-30T07:09:40;24.17;;;8.85;;
30539;SDS011;17321;46.312;4.776;2023-09-30T07:12:06;23.77;;;9.48;;
30539;SDS011;17321;46.312;4.776;2023-09-30T07:14:32;21.77;;;9.38;;
30539;SDS011;17321;46.312;4.776;2023-09-30T07:16:59;25.10;;;9.82;;
30539;SDS011;17321;46.312;4.776;2023-09-30T07:19:25;23.60;;;9.80;;
30539;SDS011;17321;46.312;4.776;2023-09-30T07:21:52;23.77;;;9.85;;
30539;SDS011;17321;46.312;4.776;2023-09-30T07:24:18;24.13;;;9.32;;
30539;SDS011;17321;46.312;4.776;2023-09-30T07:26:44;22.45;;;9.75;;
30539;SDS011;17321;46.312;4.776;2023-09-30T07:29:10;22.77;;;9.13;;
30539;SDS011;17321;46.312;4.776;2023-09-30T07:31:37;22.08;;;8.68;;
30539;SDS011;17321;46.312;4.776;2023-09-30T07:34:03;22.95;;;9.07;;
30539;SDS011;17321;46.312;4.776;2023-09-30T07:36:29;18.20;;;8.70;;
30539;SDS011;17321;46.312;4.776;2023-09-30T07:38:55;20.20;;;9.50;;
30539;SDS011;17321;46.312;4.776;2023-09-30T07:41:21;20.13;;;8.60;;
30539;SDS011;17321;46.312;4.776;2023-09-30T07:43:47;21.58;;;9.60;;
30539;SDS011;17321;46.312;4.776;2023-09-30T07:46:14;20.75;;;8.70;;
30539;SDS011;17321;46.312;4.776;2023-09-30T07:48:40;15.65;;;7.60;;
30539;SDS011;17321;46.312;4.776;2023-09-30T07:51:06;17.58;;;8.02;;
30539;SDS011;17321;46.312;4.776;2023-09-30T07:53:38;17.88;;;7.82;;
30539;SDS011;17321;46.312;4.776;2023-09-30T07:56:05;22.38;;;7.85;;
30539;SDS011;17321;46.312;4.776;2023-09-30T07:58:31;16.10;;;7.03;;
30539;SDS011;17321;46.312;4.776;2023-09-30T08:00:58;17.88;;;7.45;;
30539;SDS011;17321;46.312;4.776;2023-09-30T08:03:25;15.02;;;6.63;;
30539;SDS011;17321;46.312;4.776;2023-09-30T08:05:51;18.05;;;6.97;;
30539;SDS011;17321;46.312;4.776;2023-09-30T08:08:17;18.35;;;7.20;;
30539;SDS011;17321;46.312;4.776;2023-09-30T08:10:44;15.27;;;6.88;;
30539;SDS011;17321;46.312;4.776;2023-09-30T08:13:10;18.55;;;7.53;;
30539;SDS011;17321;46.312;4.776;2023-09-30T08:15:36;15.95;;;7.50;;
30539;SDS011;17321;46.312;4.776;2023-09-30T08:18:03;17.67;;;7.63;;
30539;SDS011;17321;46.312;4.776;2023-09-30T08:20:31;19.60;;;6.97;;
30539;SDS011;17321;46.312;4.776;2023-09-30T08:22:57;16.05;;;7.53;;
30539;SDS011;17321;46.312;4.776;2023-09-30T08:25:23;14.95;;;6.95;;
30539;SDS011;17321;46.312;4.776;2023-09-30T08:27:49;16.52;;;7.22;;
30539;SDS011;17321;46.312;4.776;2023-09-30T08:30:16;15.43;;;6.55;;
30539;SDS011;17321;46.312;4.776;2023-09-30T08:32:42;19.92;;;8.48;;
30539;SDS011;17321;46.312;4.776;2023-09-30T08:35:09;15.63;;;7.85;;
30539;SDS011;17321;46.312;4.776;2023-09-30T08:37:36;20.13;;;9.75;;
30539;SDS011;17321;46.312;4.776;2023-09-30T08:40:06;18.23;;;7.43;;
30539;SDS011;17321;46.312;4.776;2023-09-30T08:42:34;17.60;;;7.18;;
30539;SDS011;17321;46.312;4.776;2023-09-30T08:45:01;27.75;;;7.75;;
30539;SDS011;17321;46.312;4.776;2023-09-30T08:47:28;18.85;;;7.88;;
30539;SDS011;17321;46.312;4.776;2023-09-30T08:49:54;20.67;;;8.43;;
30539;SDS011;17321;46.312;4.776;2023-09-30T08:52:23;16.67;;;7.82;;
30539;SDS011;17321;46.312;4.776;2023-09-30T08:54:49;21.48;;;9.07;;
30539;SDS011;17321;46.312;4.776;2023-09-30T08:57:16;17.33;;;7.85;;
30539;SDS011;17321;46.312;4.776;2023-09-30T08:59:43;19.55;;;7.43;;
30539;SDS011;17321;46.312;4.776;2023-09-30T09:02:10;14.32;;;6.93;;
30539;SDS011;17321;46.312;4.776;2023-09-30T09:04:39;20.65;;;7.60;;
30539;SDS011;17321;46.312;4.776;2023-09-30T09:07:05;19.25;;;8.25;;
30539;SDS011;17321;46.312;4.776;2023-09-30T09:09:32;17.75;;;7.68;;
30539;SDS011;17321;46.312;4.776;2023-09-30T09:11:58;21.52;;;8.10;;
30539;SDS011;17321;46.312;4.776;2023-09-30T09:14:37;19.63;;;9.13;;
30539;SDS011;17321;46.312;4.776;2023-09-30T09:17:10;19.02;;;8.95;;
30539;SDS011;17321;46.312;4.776;2023-09-30T09:19:36;20.80;;;9.15;;
30539;SDS011;17321;46.312;4.776;2023-09-30T09:22:03;17.88;;;9.20;;
30539;SDS011;17321;46.312;4.776;2023-09-30T09:24:33;20.00;;;8.80;;
30539;SDS011;17321;46.312;4.776;2023-09-30T09:27:06;19.33;;;7.78;;
30539;SDS011;17321;46.312;4.776;2023-09-30T09:29:32;19.02;;;9.23;;
30539;SDS011;17321;46.312;4.776;2023-09-30T09:32:08;17.65;;;8.13;;
30539;SDS011;17321;46.312;4.776;2023-09-30T09:34:35;23.25;;;9.07;;
30539;SDS011;17321;46.312;4.776;2023-09-30T09:37:17;17.95;;;8.40;;
30539;SDS011;17321;46.312;4.776;2023-09-30T09:39:56;21.52;;;8.85;;
30539;SDS011;17321;46.312;4.776;2023-09-30T09:42:30;20.55;;;9.77;;
30539;SDS011;17321;46.312;4.776;2023-09-30T09:44:57;19.65;;;8.73;;
30539;SDS011;17321;46.312;4.776;2023-09-30T09:47:23;21.15;;;9.40;;
30539;SDS011;17321;46.312;4.776;2023-09-30T09:49:50;17.35;;;8.40;;
30539;SDS011;17321;46.312;4.776;2023-09-30T09:52:17;21.48;;;10.30;;
30539;SDS011;17321;46.312;4.776;2023-09-30T09:54:45;17.90;;;9.00;;
30539;SDS011;17321;46.312;4.776;2023-09-30T09:57:12;19.27;;;8.73;;
30539;SDS011;17321;46.312;4.776;2023-09-30T09:59:39;20.55;;;9.85;;
30539;SDS011;17321;46.312;4.776;2023-09-30T10:02:09;18.30;;;8.98;;
30539;SDS011;17321;46.312;4.776;2023-09-30T10:04:37;18.65;;;10.05;;
30539;SDS011;17321;46.312;4.776;2023-09-30T10:07:03;19.30;;;9.48;;
30539;SDS011;17321;46.312;4.776;2023-09-30T10:09:31;17.83;;;9.40;;
30539;SDS011;17321;46.312;4.776;2023-09-30T10:12:01;20.98;;;9.98;;
30539;SDS011;17321;46.312;4.776;2023-09-30T10:14:32;18.95;;;10.23;;
30539;SDS011;17321;46.312;4.776;2023-09-30T10:16:58;21.00;;;10.25;;
30539;SDS011;17321;46.312;4.776;2023-09-30T10:19:24;19.73;;;10.23;;
30539;SDS011;17321;46.312;4.776;2023-09-30T10:24:37;19.60;;;10.13;;
30539;SDS011;17321;46.312;4.776;2023-09-30T10:30:07;21.75;;;10.48;;
30539;SDS011;17321;46.312;4.776;2023-09-30T10:35:21;21.00;;;10.85;;
30539;SDS011;17321;46.312;4.776;2023-09-30T10:40:51;20.30;;;9.80;;
30539;SDS011;17321;46.312;4.776;2023-09-30T10:46:01;22.80;;;10.35;;
30539;SDS011;17321;46.312;4.776;2023-09-30T10:53:32;21.30;;;10.73;;
30539;SDS011;17321;46.312;4.776;2023-09-30T10:55:58;23.08;;;11.13;;
30539;SDS011;17321;46.312;4.776;2023-09-30T11:01:10;21.67;;;11.82;;
30539;SDS011;17321;46.312;4.776;2023-09-30T11:03:36;25.55;;;12.32;;
30539;SDS011;17321;46.312;4.776;2023-09-30T11:06:02;22.67;;;11.13;;
30539;SDS011;17321;46.312;4.776;2023-09-30T11:08:29;22.67;;;11.68;;
30539;SDS011;17321;46.312;4.776;2023-09-30T11:10:55;26.52;;;11.85;;
30539;SDS011;17321;46.312;4.776;2023-09-30T11:13:22;22.23;;;10.90;;
30539;SDS011;17321;46.312;4.776;2023-09-30T11:15:59;21.45;;;11.23;;
30539;SDS011;17321;46.312;4.776;2023-09-30T11:18:27;21.58;;;11.23;;
30539;SDS011;17321;46.312;4.776;2023-09-30T11:21:02;24.90;;;12.05;;
30539;SDS011;17321;46.312;4.776;2023-09-30T11:23:29;22.45;;;11.52;;
30539;SDS011;17321;46.312;4.776;2023-09-30T11:25:55;26.50;;;13.18;;
30539;SDS011;17321;46.312;4.776;2023-09-30T11:28:22;26.30;;;13.15;;
30539;SDS011;17321;46.312;4.776;2023-09-30T11:33:17;23.23;;;12.60;;
30539;SDS011;17321;46.312;4.776;2023-09-30T11:35:55;26.70;;;12.48;;
30539;SDS011;17321;46.312;4.776;2023-09-30T11:38:23;25.55;;;11.90;;
30539;SDS011;17321;46.312;4.776;2023-09-30T11:41:01;22.48;;;11.82;;
30539;SDS011;17321;46.312;4.776;2023-09-30T11:43:29;24.13;;;11.98;;
30539;SDS011;17321;46.312;4.776;2023-09-30T11:46:05;24.25;;;10.68;;
30539;SDS011;17321;46.312;4.776;2023-09-30T11:48:33;25.63;;;11.25;;
30539;SDS011;17321;46.312;4.776;2023-09-30T11:51:00;26.35;;;12.32;;
30539;SDS011;17321;46.312;4.776;2023-09-30T11:53:31;27.20;;;13.15;;
30539;SDS011;17321;46.312;4.776;2023-09-30T11:55:57;23.85;;;12.57;;
30539;SDS011;17321;46.312;4.776;2023-09-30T11:58:27;23.55;;;11.20;;
30539;SDS011;17321;46.312;4.776;2023-09-30T12:00:57;22.98;;;11.43;;
30539;SDS011;17321;46.312;4.776;2023-09-30T12:03:27;22.10;;;11.68;;
30539;SDS011;17321;46.312;4.776;2023-09-30T12:05:53;22.25;;;11.52;;
30539;SDS011;17321;46.312;4.776;2023-09-30T12:08:23;23.73;;;12.30;;
30539;SDS011;17321;46.312;4.776;2023-09-30T12:10:49;22.77;;;11.40;;
30539;SDS011;17321;46.312;4.776;2023-09-30T12:13:15;24.02;;;12.93;;
30539;SDS011;17321;46.312;4.776;2023-09-30T12:15:42;23.95;;;11.30;;
30539;SDS011;17321;46.312;4.776;2023-09-30T12:18:09;27.40;;;12.68;;
30539;SDS011;17321;46.312;4.776;2023-09-30T12:23:06;25.90;;;12.82;;
30539;SDS011;17321;46.312;4.776;2023-09-30T12:25:33;26.35;;;12.68;;
30539;SDS011;17321;46.312;4.776;2023-09-30T12:27:59;26.17;;;11.90;;
30539;SDS011;17321;46.312;4.776;2023-09-30T12:30:25;22.48;;;11.70;;
30539;SDS011;17321;46.312;4.776;2023-09-30T12:32:51;23.65;;;11.43;;
30539;SDS011;17321;46.312;4.776;2023-09-30T12:35:20;23.60;;;12.00;;
30539;SDS011;17321;46.312;4.776;2023-09-30T12:37:46;25.95;;;12.13;;
30539;SDS011;17321;46.312;4.776;2023-09-30T12:40:12;23.35;;;11.98;;
30539;SDS011;17321;46.312;4.776;2023-09-30T12:42:42;24.40;;;11.32;;
30539;SDS011;17321;46.312;4.776;2023-09-30T12:45:08;22.67;;;11.95;;
30539;SDS011;17321;46.312;4.776;2023-09-30T12:47:34;25.10;;;11.98;;
30539;SDS011;17321;46.312;4.776;2023-09-30T12:50:01;25.42;;;12.20;;
30539;SDS011;17321;46.312;4.776;2023-09-30T12:52:27;20.42;;;10.65;;
30539;SDS011;17321;46.312;4.776;2023-09-30T12:54:53;19.67;;;11.27;;
30539;SDS011;17321;46.312;4.776;2023-09-30T12:57:20;26.27;;;12.70;;
30539;SDS011;17321;46.312;4.776;2023-09-30T12:59:46;21.02;;;10.95;;
30539;SDS011;17321;46.312;4.776;2023-09-30T13:02:14;19.80;;;10.52;;
30539;SDS011;17321;46.312;4.776;2023-09-30T13:04:43;20.25;;;10.88;;
30539;SDS011;17321;46.312;4.776;2023-09-30T13:07:10;21.60;;;11.25;;
30539;SDS011;17321;46.312;4.776;2023-09-30T13:09:37;21.83;;;11.48;;
30539;SDS011;17321;46.312;4.776;2023-09-30T13:12:04;22.80;;;11.15;;
30539;SDS011;17321;46.312;4.776;2023-09-30T13:14:30;29.83;;;12.02;;
30539;SDS011;17321;46.312;4.776;2023-09-30T13:16:56;23.25;;;11.65;;
30539;SDS011;17321;46.312;4.776;2023-09-30T13:19:22;21.70;;;11.65;;
30539;SDS011;17321;46.312;4.776;2023-09-30T13:21:49;21.77;;;11.55;;
30539;SDS011;17321;46.312;4.776;2023-09-30T13:24:16;22.42;;;11.70;;
30539;SDS011;17321;46.312;4.776;2023-09-30T13:26:42;25.98;;;11.82;;
30539;SDS011;17321;46.312;4.776;2023-09-30T13:29:09;22.27;;;11.77;;
30539;SDS011;17321;46.312;4.776;2023-09-30T13:31:37;22.98;;;11.38;;
30539;SDS011;17321;46.312;4.776;2023-09-30T13:34:06;21.98;;;11.25;;
30539;SDS011;17321;46.312;4.776;2023-09-30T13:36:32;20.02;;;11.25;;
30539;SDS011;17321;46.312;4.776;2023-09-30T13:38:58;20.17;;;10.75;;
30539;SDS011;17321;46.312;4.776;2023-09-30T13:41:26;23.27;;;10.73;;
30539;SDS011;17321;46.312;4.776;2023-09-30T13:43:52;23.73;;;10.93;;
30539;SDS011;17321;46.312;4.776;2023-09-30T13:46:19;24.08;;;11.90;;
30539;SDS011;17321;46.312;4.776;2023-09-30T13:48:49;24.30;;;12.10;;
30539;SDS011;17321;46.312;4.776;2023-09-30T13:51:17;20.77;;;10.90;;
30539;SDS011;17321;46.312;4.776;2023-09-30T13:53:43;24.10;;;11.68;;
30539;SDS011;17321;46.312;4.776;2023-09-30T13:56:10;22.48;;;11.68;;
30539;SDS011;17321;46.312;4.776;2023-09-30T13:58:36;23.52;;;12.27;;
30539;SDS011;17321;46.312;4.776;2023-09-30T14:01:03;22.42;;;12.05;;
30539;SDS011;17321;46.312;4.776;2023-09-30T14:03:29;22.83;;;10.57;;
30539;SDS011;17321;46.312;4.776;2023-09-30T14:05:55;19.70;;;10.90;;
30539;SDS011;17321;46.312;4.776;2023-09-30T14:08:22;21.83;;;10.98;;
30539;SDS011;17321;46.312;4.776;2023-09-30T14:10:49;21.40;;;11.27;;
30539;SDS011;17321;46.312;4.776;2023-09-30T14:13:16;19.45;;;10.95;;
30539;SDS011;17321;46.312;4.776;2023-09-30T14:15:43;21.70;;;10.32;;
30539;SDS011;17321;46.312;4.776;2023-09-30T14:18:10;21.02;;;10.80;;
30539;SDS011;17321;46.312;4.776;2023-09-30T14:20:36;20.05;;;10.88;;
30539;SDS011;17321;46.312;4.776;2023-09-30T14:23:02;21.60;;;11.25;;
30539;SDS011;17321;46.312;4.776;2023-09-30T14:25:29;25.88;;;10.73;;
30539;SDS011;17321;46.312;4.776;2023-09-30T14:27:55;20.55;;;11.23;;
30539;SDS011;17321;46.312;4.776;2023-09-30T14:30:24;23.95;;;11.70;;
30539;SDS011;17321;46.312;4.776;2023-09-30T14:32:51;20.83;;;10.98;;
30539;SDS011;17321;46.312;4.776;2023-09-30T14:35:18;19.48;;;11.30;;
30539;SDS011;17321;46.312;4.776;2023-09-30T14:37:45;23.05;;;10.52;;
30539;SDS011;17321;46.312;4.776;2023-09-30T14:40:11;21.88;;;10.95;;
30539;SDS011;17321;46.312;4.776;2023-09-30T14:42:38;19.80;;;10.18;;
30539;SDS011;17321;46.312;4.776;2023-09-30T14:45:04;23.00;;;10.65;;
30539;SDS011;17321;46.312;4.776;2023-09-30T14:47:31;20.02;;;10.45;;
30539;SDS011;17321;46.312;4.776;2023-09-30T14:49:57;17.08;;;9.23;;
30539;SDS011;17321;46.312;4.776;2023-09-30T14:52:26;18.38;;;9.68;;
30539;SDS011;17321;46.312;4.776;2023-09-30T14:54:52;20.88;;;10.98;;
30539;SDS011;17321;46.312;4.776;2023-09-30T14:57:18;19.52;;;10.50;;